Time;durP1;ratioP1;P1;durP2;ratioP2;P2;SDS_P1;SDS_P2;PMS_P1;PMS_P2;Temp;Humidity;BMP_temperature;BMP_pressure;BME280_temperature;BME280_humidity;BME280_pressure;Samples;Min_cycle;Max_cycle;Signal;HPM_P1;HPM_P2
2022/09/18 00:02:20;;;;;;;;;;;;;;;15.19;100.00;98347.28;5132702;27;798;-67
2022/09/18 00:04:47;;;;;;;;;;;;;;;15.18;100.00;98340.16;5132362;27;849;-67
2022/09/18 00:07:14;;;;;;;;;;;;;;;15.19;100.00;98347.28;5132297;27;830;-66
2022/09/18 00:09:42;;;;;;;;;;;;;;;15.19;100.00;98344.50;5132461;27;819;-67
2022/09/18 00:12:09;;;;;;;;;;;;;;;15.11;100.00;98335.69;5132238;27;929;-66
2022/09/18 00:14:39;;;;;;;;;;;;;;;15.10;100.00;98352.84;5132249;27;981;-66
2022/09/18 00:17:06;;;;;;;;;;;;;;;15.14;100.00;98347.13;5132162;27;886;-66
2022/09/18 00:19:33;;;;;;;;;;;;;;;15.28;100.00;98352.81;5132245;27;866;-66
2022/09/18 00:22:01;;;;;;;;;;;;;;;15.47;100.00;98358.31;5130836;28;1202;-66
2022/09/18 00:24:27;;;;;;;;;;;;;;;15.53;100.00;98350.81;5132166;28;902;-66
2022/09/18 00:26:54;;;;;;;;;;;;;;;15.45;100.00;98352.44;5132107;27;865;-66
2022/09/18 00:29:20;;;;;;;;;;;;;;;15.41;100.00;98346.25;5132150;27;823;-66
2022/09/18 00:31:47;;;;;;;;;;;;;;;15.39;100.00;98335.59;5132071;27;807;-66
2022/09/18 00:34:14;;;;;;;;;;;;;;;15.32;100.00;98336.72;5132103;27;807;-66
2022/09/18 00:36:42;;;;;;;;;;;;;;;15.31;100.00;98337.16;5132724;27;783;-66
2022/09/18 00:39:10;;;;;;;;;;;;;;;15.32;100.00;98342.28;5135968;27;819;-66
2022/09/18 00:41:38;;;;;;;;;;;;;;;15.27;100.00;98339.34;5135833;27;1969;-66
2022/09/18 00:44:40;;;;;;;;;;;;;;;15.26;100.00;98338.59;5134530;27;1292;-65
2022/09/18 00:47:07;;;;;;;;;;;;;;;15.21;100.00;98338.44;5052339;28;1324;-65
2022/09/18 00:49:35;;;;;;;;;;;;;;;15.21;100.00;98328.09;5052453;28;879;-66
2022/09/18 00:52:02;;;;;;;;;;;;;;;15.18;100.00;98331.03;5052425;28;804;-66
2022/09/18 00:54:31;;;;;;;;;;;;;;;15.17;100.00;98333.06;5035525;28;1330;-66
2022/09/18 00:57:00;;;;;;;;;;;;;;;15.11;100.00;98335.69;5035490;28;1323;-65
2022/09/18 00:59:29;;;;;;;;;;;;;;;15.19;100.00;98329.78;5052174;28;1036;-66
2022/09/18 01:01:55;;;;;;;;;;;;;;;15.20;100.00;98345.25;5051892;28;1889;-66
2022/09/18 01:04:22;;;;;;;;;;;;;;;15.11;100.00;98346.06;5052126;28;878;-67
2022/09/18 01:06:52;;;;;;;;;;;;;;;15.09;100.00;98340.19;5035405;28;1232;-67
2022/09/18 01:09:32;;;;;;;;;;;;;;;15.08;100.00;98338.63;5051964;28;910;-67
2022/09/18 01:12:03;;;;;;;;;;;;;;;15.00;100.00;98345.78;5052105;28;811;-67
2022/09/18 01:14:35;;;;;;;;;;;;;;;14.96;100.00;98345.19;5051944;28;929;-67
2022/09/18 01:17:18;;;;;;;;;;;;;;;14.90;100.00;98340.25;5051853;28;934;-67
2022/09/18 01:20:02;;;;;;;;;;;;;;;14.87;100.00;98335.63;5051791;28;1934;-66
2022/09/18 01:22:31;;;;;;;;;;;;;;;14.85;100.00;98346.44;5135067;27;838;-66
2022/09/18 01:25:07;;;;;;;;;;;;;;;14.87;100.00;98338.41;5135256;27;847;-66
2022/09/18 01:27:54;;;;;;;;;;;;;;;14.85;100.00;98340.88;5135018;27;810;-66
2022/09/18 01:30:20;;;;;;;;;;;;;;;14.87;100.00;98340.41;5134880;27;1027;-66
2022/09/18 01:32:54;;;;;;;;;;;;;;;14.88;100.00;98345.50;5133632;27;1320;-66
2022/09/18 01:35:24;;;;;;;;;;;;;;;14.92;100.00;98336.22;5135072;27;874;-66
2022/09/18 01:37:57;;;;;;;;;;;;;;;14.97;100.00;98341.16;5134891;27;834;-66
2022/09/18 01:40:27;;;;;;;;;;;;;;;14.96;100.00;98342.41;5134747;27;1946;-66
2022/09/18 01:42:56;;;;;;;;;;;;;;;14.92;100.00;98336.22;5134800;27;826;-66
2022/09/18 01:45:29;;;;;;;;;;;;;;;14.92;100.00;98333.44;5134537;27;878;-66
2022/09/18 01:48:01;;;;;;;;;;;;;;;14.96;100.00;98329.25;5134908;27;917;-66
2022/09/18 01:50:30;;;;;;;;;;;;;;;15.03;100.00;98330.94;5134534;27;854;-66
2022/09/18 01:53:15;;;;;;;;;;;;;;;15.03;100.00;98328.91;5134555;27;803;-66
2022/09/18 01:55:44;;;;;;;;;;;;;;;14.95;100.00;98327.69;5133123;27;1174;-66
2022/09/18 01:58:16;;;;;;;;;;;;;;;14.86;100.00;98331.28;5134447;27;827;-65
2022/09/18 02:00:47;;;;;;;;;;;;;;;14.85;100.00;98323.41;5134069;27;1893;-65
2022/09/18 02:03:17;;;;;;;;;;;;;;;14.86;100.00;98327.75;5134687;27;834;-65
2022/09/18 02:05:48;;;;;;;;;;;;;;;14.85;100.00;98334.53;5134559;27;890;-65
2022/09/18 02:08:30;;;;;;;;;;;;;;;14.81;100.00;98331.94;5134489;27;874;-66
2022/09/18 02:11:14;;;;;;;;;;;;;;;14.84;100.00;98344.13;5134194;27;1043;-65
2022/09/18 02:13:43;;;;;;;;;;;;;;;14.89;100.00;98338.72;5134061;27;843;-65
2022/09/18 02:16:14;;;;;;;;;;;;;;;14.90;100.00;98334.69;5134098;27;870;-65
2022/09/18 02:18:44;;;;;;;;;;;;;;;14.86;100.00;98339.63;5133959;27;878;-65
2022/09/18 02:21:14;;;;;;;;;;;;;;;14.91;100.00;98341.00;5134213;27;1894;-65
2022/09/18 02:23:41;;;;;;;;;;;;;;;14.94;100.00;98340.09;5133886;27;854;-65
2022/09/18 02:26:10;;;;;;;;;;;;;;;14.89;100.00;98341.50;5132566;27;1205;-66
2022/09/18 02:28:38;;;;;;;;;;;;;;;14.94;100.00;98345.66;5132565;27;1304;-66
2022/09/18 02:31:04;;;;;;;;;;;;;;;14.95;100.00;98346.41;5133738;27;890;-65
2022/09/18 02:33:35;;;;;;;;;;;;;;;14.87;100.00;98352.31;5133744;27;858;-65
2022/09/18 02:36:20;;;;;;;;;;;;;;;14.88;100.00;98339.94;5133614;27;886;-66
2022/09/18 02:39:07;;;;;;;;;;;;;;;14.97;100.00;98336.34;5132333;27;1169;-66
2022/09/18 02:41:52;;;;;;;;;;;;;;;14.95;100.00;98341.63;5133510;27;1970;-66
2022/09/18 02:44:38;;;;;;;;;;;;;;;14.98;100.00;98331.56;5133445;27;850;-66
2022/09/18 02:47:24;;;;;;;;;;;;;;;15.01;100.00;98344.53;5133114;27;1086;-66
2022/09/18 02:50:00;;;;;;;;;;;;;;;15.03;100.00;98344.84;5133333;27;866;-66
2022/09/18 02:52:31;;;;;;;;;;;;;;;15.02;100.00;98344.09;5132000;27;1312;-66
2022/09/18 02:55:09;;;;;;;;;;;;;;;15.07;100.00;98342.69;5133376;27;850;-66
2022/09/18 02:57:39;;;;;;;;;;;;;;;15.12;100.00;98353.16;5133383;27;799;-66
2022/09/18 03:00:06;;;;;;;;;;;;;;;15.10;100.00;98359.19;5132269;27;1889;-66
2022/09/18 03:02:33;;;;;;;;;;;;;;;15.06;100.00;98377.28;5133214;27;862;-66
2022/09/18 03:04:59;;;;;;;;;;;;;;;14.93;100.00;98377.47;5133098;27;808;-67
2022/09/18 03:07:26;;;;;;;;;;;;;;;14.88;100.00;98392.03;5133142;27;866;-67
2022/09/18 03:09:53;;;;;;;;;;;;;;;14.87;100.00;98391.25;5133004;27;897;-67
2022/09/18 03:12:20;;;;;;;;;;;;;;;14.97;100.00;98405.91;5132991;27;839;-67
2022/09/18 03:14:46;;;;;;;;;;;;;;;15.06;100.00;98391.19;5131547;27;1198;-67
2022/09/18 03:17:13;;;;;;;;;;;;;;;15.18;100.00;98392.28;5132903;27;819;-67
2022/09/18 03:19:40;;;;;;;;;;;;;;;15.13;100.00;98379.75;5131557;27;1190;-68
2022/09/18 03:22:07;;;;;;;;;;;;;;;15.04;100.00;98379.78;5133209;27;834;-67
2022/09/18 03:24:34;;;;;;;;;;;;;;;15.03;100.00;98392.16;5133043;27;850;-67
2022/09/18 03:27:00;;;;;;;;;;;;;;;15.00;100.00;98407.78;5133162;27;846;-67
2022/09/18 03:29:26;;;;;;;;;;;;;;;14.96;100.00;98389.69;5132919;27;807;-67
2022/09/18 03:31:54;;;;;;;;;;;;;;;14.98;100.00;98398.31;5132920;27;889;-67
2022/09/18 03:34:20;;;;;;;;;;;;;;;15.02;100.00;98410.84;5132968;27;882;-67
2022/09/18 03:36:47;;;;;;;;;;;;;;;15.03;100.00;98409.59;5131533;27;1352;-68
2022/09/18 03:39:14;;;;;;;;;;;;;;;15.11;100.00;98416.41;5133113;27;838;-67
2022/09/18 03:41:40;;;;;;;;;;;;;;;15.18;100.00;98425.66;5131655;27;1893;-68
2022/09/18 03:44:07;;;;;;;;;;;;;;;15.16;100.00;98430.94;5132876;27;885;-69
2022/09/18 03:46:34;;;;;;;;;;;;;;;15.11;100.00;98423.97;5131594;27;1193;-68
2022/09/18 03:49:01;;;;;;;;;;;;;;;15.14;100.00;98442.50;5133244;27;795;-69
2022/09/18 03:51:28;;;;;;;;;;;;;;;15.15;100.00;98452.41;5132490;27;830;-69
2022/09/18 03:53:54;;;;;;;;;;;;;;;15.10;100.00;98462.16;5132537;27;831;-72
2022/09/18 03:56:21;;;;;;;;;;;;;;;14.99;100.00;98459.06;5132419;27;791;-73
2022/09/18 03:58:48;;;;;;;;;;;;;;;14.93;100.00;98476.84;5131223;28;1043;-73
2022/09/18 04:01:15;;;;;;;;;;;;;;;14.75;100.00;98461.72;5130874;28;2176;-73
2022/09/18 04:03:41;;;;;;;;;;;;;;;14.46;100.00;98493.47;5132438;27;823;-69
2022/09/18 04:06:08;;;;;;;;;;;;;;;14.32;100.00;98485.75;5130997;28;2069;-72
2022/09/18 04:08:36;;;;;;;;;;;;;;;14.30;100.00;98485.44;5131178;28;1200;-67
2022/09/18 04:11:03;;;;;;;;;;;;;;;14.37;100.00;98498.25;5132198;27;826;-70
2022/09/18 04:13:31;;;;;;;;;;;;;;;14.41;100.00;98496.09;5136012;27;807;-69
2022/09/18 04:15:58;;;;;;;;;;;;;;;14.37;100.00;98503.81;5135155;27;1387;-70
2022/09/18 04:18:25;;;;;;;;;;;;;;;14.30;100.00;98502.09;5136388;27;840;-67
2022/09/18 04:20:51;;;;;;;;;;;;;;;14.35;100.00;98509.06;5136155;27;1913;-69
2022/09/18 04:23:19;;;;;;;;;;;;;;;14.37;100.00;98528.84;5136233;27;807;-69
2022/09/18 04:25:45;;;;;;;;;;;;;;;14.32;100.00;98507.97;5136308;27;819;-67
2022/09/18 04:28:12;;;;;;;;;;;;;;;14.29;100.00;98511.66;5136086;27;839;-69
2022/09/18 04:30:39;;;;;;;;;;;;;;;14.27;100.00;98512.13;5136188;27;843;-69
2022/09/18 04:33:06;;;;;;;;;;;;;;;14.27;100.00;98517.69;5134671;27;1182;-68
2022/09/18 04:35:37;;;;;;;;;;;;;;;14.41;100.00;98512.78;5136059;27;819;-74
2022/09/18 04:38:03;;;;;;;;;;;;;;;14.46;100.00;98531.63;5135967;27;851;-74
2022/09/18 04:40:30;;;;;;;;;;;;;;;14.39;100.00;98532.69;5136008;27;1890;-73
2022/09/18 04:42:56;;;;;;;;;;;;;;;14.42;100.00;98529.00;5136282;27;858;-70
2022/09/18 04:45:23;;;;;;;;;;;;;;;14.43;100.00;98524.22;5136121;27;823;-71
2022/09/18 04:47:49;;;;;;;;;;;;;;;14.42;100.00;98526.22;5136371;27;814;-71
2022/09/18 04:50:16;;;;;;;;;;;;;;;14.45;100.00;98530.84;5136084;27;858;-69
2022/09/18 04:52:43;;;;;;;;;;;;;;;14.49;100.00;98531.50;5134739;27;1277;-68
2022/09/18 04:55:10;;;;;;;;;;;;;;;14.50;100.00;98535.81;5135683;27;878;-69
2022/09/18 04:57:36;;;;;;;;;;;;;;;14.45;100.00;98536.41;5135917;27;823;-67
2022/09/18 05:00:05;;;;;;;;;;;;;;;14.53;100.00;98538.91;5135448;27;1894;-69
2022/09/18 05:02:32;;;;;;;;;;;;;;;14.68;100.00;98549.00;5135907;27;807;-68
2022/09/18 05:33:26;;;;;;;;;;;;;;;15.63;82.55;98577.91;5204276;22;1686;-67
2022/09/18 05:35:54;;;;;;;;;;;;;;;15.68;82.87;98587.66;5036002;28;1403;-69
2022/09/18 05:38:21;;;;;;;;;;;;;;;15.70;82.18;98593.53;5035856;28;1263;-67
2022/09/18 05:40:47;;;;;;;;;;;;;;;15.71;81.38;98607.03;5053480;28;1918;-72
2022/09/18 05:43:17;;;;;;;;;;;;;;;15.77;80.38;98618.31;5036062;28;1208;-72
2022/09/18 05:45:45;;;;;;;;;;;;;;;15.85;80.85;98625.13;5053485;28;820;-69
2022/09/18 05:48:12;;;;;;;;;;;;;;;16.01;81.17;98617.66;5053410;28;863;-69
2022/09/18 05:50:39;;;;;;;;;;;;;;;16.12;79.98;98635.41;5053435;28;812;-69
2022/09/18 05:53:07;;;;;;;;;;;;;;;16.25;78.95;98654.75;5036075;28;1050;-68
2022/09/18 05:55:33;;;;;;;;;;;;;;;16.40;78.15;98649.28;5035594;28;1268;-72
2022/09/18 05:58:01;;;;;;;;;;;;;;;16.36;79.06;98643.09;5053448;28;844;-73
2022/09/18 06:00:29;;;;;;;;;;;;;;;16.10;79.10;98657.41;5053253;28;1947;-70
2022/09/18 06:02:59;;;;;;;;;;;;;;;16.05;77.38;98641.34;5053076;28;851;-71
2022/09/18 06:05:27;;;;;;;;;;;;;;;16.04;77.46;98631.41;5035722;28;1119;-69
2022/09/18 06:07:54;;;;;;;;;;;;;;;16.10;77.16;98659.44;5053545;28;788;-69
2022/09/18 06:10:22;;;;;;;;;;;;;;;16.29;76.65;98657.38;5053129;28;809;-71
2022/09/18 06:12:47;;;;;;;;;;;;;;;16.63;73.73;98664.53;5052998;28;816;-70
2022/09/18 06:15:14;;;;;;;;;;;;;;;16.94;72.30;98650.31;5053509;28;788;-70
2022/09/18 06:17:41;;;;;;;;;;;;;;;16.97;70.93;98634.63;5053042;28;889;-69
2022/09/18 06:20:08;;;;;;;;;;;;;;;17.16;70.42;98660.41;5052800;28;1889;-72
2022/09/18 06:22:36;;;;;;;;;;;;;;;17.46;69.10;98646.53;5034953;28;1042;-68
2022/09/18 06:25:11;;;;;;;;;;;;;;;17.34;67.28;98651.13;5034931;28;1159;-69
2022/09/18 06:27:38;;;;;;;;;;;;;;;17.08;64.55;98640.44;5053341;28;788;-70
2022/09/18 06:30:15;;;;;;;;;;;;;;;16.64;65.74;98642.97;5053535;28;796;-73
2022/09/18 06:32:41;;;;;;;;;;;;;;;16.26;65.09;98645.16;5026808;28;1419;-68
2022/09/18 06:35:08;;;;;;;;;;;;;;;16.03;65.89;98654.97;5012442;28;792;-73
2022/09/18 06:37:35;;;;;;;;;;;;;;;16.10;64.51;98651.06;5013239;28;812;-70
2022/09/18 06:43:05;;;;;;;;;;;;;;;16.43;63.88;98676.22;5013091;28;697;-70
2022/09/18 06:45:31;;;;;;;;;;;;;;;16.55;61.90;98694.00;5012000;28;1405;-70
2022/09/18 06:48:01;;;;;;;;;;;;;;;16.41;61.67;98675.94;5013158;28;939;-73
2022/09/18 06:50:28;;;;;;;;;;;;;;;16.41;61.15;98714.97;5011652;28;1273;-69
2022/09/18 06:52:59;;;;;;;;;;;;;;;16.56;62.46;98728.22;5012624;28;943;-69
2022/09/18 06:55:33;;;;;;;;;;;;;;;16.68;60.97;98730.81;5012909;28;887;-68
2022/09/18 06:58:00;;;;;;;;;;;;;;;16.80;60.30;98725.53;5012520;28;887;-69
2022/09/18 07:00:27;;;;;;;;;;;;;;;17.09;60.56;98745.28;5011026;28;1941;-69
2022/09/18 07:02:55;;;;;;;;;;;;;;;17.95;56.72;98749.41;5012482;28;798;-68
2022/09/18 07:05:21;;;;;;;;;;;;;;;17.75;57.93;98758.38;5012919;28;793;-69
2022/09/18 07:07:51;;;;;;;;;;;;;;;17.07;57.25;98730.22;5012373;28;808;-69
2022/09/18 07:10:18;;;;;;;;;;;;;;;16.80;56.64;98750.66;5012351;28;872;-71
2022/09/18 07:12:47;;;;;;;;;;;;;;;16.96;57.18;98746.72;5011002;28;1326;-68
2022/09/18 07:15:15;;;;;;;;;;;;;;;17.12;56.56;98763.88;5012567;28;923;-65
2022/09/18 07:17:42;;;;;;;;;;;;;;;17.42;55.95;98796.78;5012395;28;864;-68
2022/09/18 07:20:10;;;;;;;;;;;;;;;17.81;54.69;98799.63;5012343;28;1968;-67
2022/09/18 07:22:37;;;;;;;;;;;;;;;18.43;60.51;98815.63;5011032;28;1121;-66
2022/09/18 07:25:05;;;;;;;;;;;;;;;19.51;52.48;98781.75;5012162;28;888;-66
2022/09/18 07:27:31;;;;;;;;;;;;;;;19.89;51.39;98816.44;5012111;28;827;-62
2022/09/18 07:29:58;;;;;;;;;;;;;;;19.29;56.31;98822.19;5012042;28;820;-62
2022/09/18 07:32:25;;;;;;;;;;;;;;;18.62;49.95;98821.81;5018116;28;1210;-63
2022/09/18 07:34:52;;;;;;;;;;;;;;;18.32;50.00;98821.00;5051841;28;843;-63
2022/09/18 07:37:19;;;;;;;;;;;;;;;18.22;50.52;98811.94;5051813;28;827;-65
2022/09/18 07:39:46;;;;;;;;;;;;;;;18.52;51.98;98826.75;5033871;28;1499;-64
2022/09/18 07:42:13;;;;;;;;;;;;;;;18.69;50.22;98818.66;5051541;28;1906;-66
2022/09/18 07:44:40;;;;;;;;;;;;;;;18.73;50.96;98838.81;5051540;28;815;-63
2022/09/18 07:47:07;;;;;;;;;;;;;;;18.55;51.85;98836.97;5051283;28;803;-62
2022/09/18 07:49:36;;;;;;;;;;;;;;;18.21;51.01;98826.41;5051790;28;859;-65
2022/09/18 07:52:02;;;;;;;;;;;;;;;17.75;51.56;98831.03;5051381;28;859;-64
2022/09/18 07:54:30;;;;;;;;;;;;;;;17.70;52.10;98830.91;5051390;28;861;-63
2022/09/18 07:56:56;;;;;;;;;;;;;;;17.68;54.27;98844.56;5051381;28;823;-63
2022/09/18 07:59:23;;;;;;;;;;;;;;;17.80;52.77;98851.19;5051199;28;828;-63
2022/09/18 08:01:51;;;;;;;;;;;;;;;17.78;50.79;98832.09;5051545;28;1953;-64
2022/09/18 08:04:17;;;;;;;;;;;;;;;17.83;50.59;98828.69;5051294;28;848;-64
2022/09/18 08:06:45;;;;;;;;;;;;;;;17.90;51.70;98839.50;5051222;28;895;-63
2022/09/18 08:09:11;;;;;;;;;;;;;;;18.09;52.87;98830.97;5033240;28;1287;-64
2022/09/18 08:11:38;;;;;;;;;;;;;;;18.20;50.65;98841.63;5051509;28;867;-64
2022/09/18 08:14:04;;;;;;;;;;;;;;;18.19;49.15;98854.06;5051175;28;820;-62
2022/09/18 08:16:32;;;;;;;;;;;;;;;18.66;49.89;98835.63;5051262;28;860;-63
2022/09/18 08:18:59;;;;;;;;;;;;;;;19.11;49.99;98839.22;5051239;28;840;-64
2022/09/18 08:21:25;;;;;;;;;;;;;;;19.01;46.86;98840.56;5051021;28;1890;-64
2022/09/18 08:23:52;;;;;;;;;;;;;;;18.84;47.29;98831.88;5051200;28;898;-65
2022/09/18 08:26:19;;;;;;;;;;;;;;;18.70;49.58;98845.38;5033390;28;1541;-64
2022/09/18 08:28:46;;;;;;;;;;;;;;;18.65;49.44;98840.47;5051040;28;837;-62
2022/09/18 08:31:13;;;;;;;;;;;;;;;18.94;47.34;98850.91;5051247;28;927;-63
2022/09/18 08:33:40;;;;;;;;;;;;;;;19.17;48.78;98851.28;5050841;28;1395;-64
2022/09/18 08:36:07;;;;;;;;;;;;;;;19.17;50.07;98835.25;5051271;28;880;-64
2022/09/18 08:38:34;;;;;;;;;;;;;;;19.38;47.11;98846.53;5051311;28;895;-61
2022/09/18 08:41:00;;;;;;;;;;;;;;;19.84;47.40;98845.91;5050931;28;1919;-62
2022/09/18 08:43:46;;;;;;;;;;;;;;;20.73;44.52;98847.47;5051489;28;843;-62
2022/09/18 08:46:22;;;;;;;;;;;;;;;21.08;43.03;98854.94;5050851;28;820;-64
2022/09/18 08:48:58;;;;;;;;;;;;;;;20.85;43.34;98835.09;5050774;28;879;-63
2022/09/18 08:51:32;;;;;;;;;;;;;;;20.95;44.24;98858.13;5050962;28;867;-62
2022/09/18 08:54:18;;;;;;;;;;;;;;;20.42;45.43;98853.75;5050793;28;808;-62
2022/09/18 08:56:45;;;;;;;;;;;;;;;19.90;45.27;98860.00;5051021;28;809;-63
2022/09/18 08:59:18;;;;;;;;;;;;;;;19.63;44.86;98869.53;5053671;28;828;-63
2022/09/18 09:01:51;;;;;;;;;;;;;;;19.71;45.54;98873.50;5054570;28;2224;-63
2022/09/18 09:04:22;;;;;;;;;;;;;;;20.06;42.64;98875.53;5054346;28;839;-61
2022/09/18 09:07:01;;;;;;;;;;;;;;;20.43;43.99;98861.69;5054306;28;867;-63
2022/09/18 09:09:28;;;;;;;;;;;;;;;20.50;44.89;98869.66;5054186;28;844;-63
2022/09/18 09:12:01;;;;;;;;;;;;;;;20.79;47.50;98865.16;5054191;28;843;-63
2022/09/18 09:14:55;;;;;;;;;;;;;;;20.81;43.03;98854.19;5036283;28;891;-63
2022/09/18 09:17:31;;;;;;;;;;;;;;;20.65;43.10;98863.22;5054098;28;816;-62
2022/09/18 09:20:21;;;;;;;;;;;;;;;20.86;45.21;98866.75;5054035;28;1949;-63
2022/09/18 09:22:58;;;;;;;;;;;;;;;21.18;45.11;98881.59;5046533;28;1555;-62
2022/09/18 09:25:40;;;;;;;;;;;;;;;21.24;44.39;98871.16;5054202;28;803;-62
2022/09/18 09:28:13;;;;;;;;;;;;;;;21.32;43.40;98888.34;5053805;28;795;-61
2022/09/18 09:30:42;;;;;;;;;;;;;;;21.49;42.96;98888.53;5053747;28;946;-61
2022/09/18 09:33:08;;;;;;;;;;;;;;;21.40;44.45;98897.84;5053787;28;1259;-61
2022/09/18 09:35:40;;;;;;;;;;;;;;;21.66;43.22;98900.66;5053830;28;969;-62
2022/09/18 09:38:28;;;;;;;;;;;;;;;21.61;40.45;98899.34;5053728;28;875;-61
2022/09/18 09:40:56;;;;;;;;;;;;;;;21.51;40.80;98895.19;5053901;28;1926;-62
2022/09/18 09:43:26;;;;;;;;;;;;;;;21.17;39.90;98916.59;5053619;28;828;-62
2022/09/18 09:45:57;;;;;;;;;;;;;;;21.16;39.65;98896.13;5053564;28;839;-63
2022/09/18 09:48:50;;;;;;;;;;;;;;;21.14;39.03;98911.94;5053451;28;866;-62
2022/09/18 09:51:24;;;;;;;;;;;;;;;21.36;38.54;98905.75;5050686;28;1101;-62
2022/09/18 09:53:54;;;;;;;;;;;;;;;21.35;37.75;98904.22;5053432;28;804;-61
2022/09/18 09:56:27;;;;;;;;;;;;;;;21.21;36.67;98911.50;5053252;28;1034;-62
2022/09/18 09:59:14;;;;;;;;;;;;;;;21.17;36.44;98916.59;5053508;28;811;-62
2022/09/18 10:01:44;;;;;;;;;;;;;;;21.58;37.87;98917.19;5053151;28;1871;-62
2022/09/18 10:04:11;;;;;;;;;;;;;;;21.82;36.21;98927.31;5053181;28;855;-61
2022/09/18 10:06:56;;;;;;;;;;;;;;;21.67;36.82;98927.47;5053265;28;843;-62
2022/09/18 10:09:42;;;;;;;;;;;;;;;21.19;36.57;98923.25;5035129;28;1328;-61
2022/09/18 10:12:27;;;;;;;;;;;;;;;21.18;37.60;98932.94;5053043;28;902;-62
2022/09/18 10:27:09;;;;;;;;;;;;;;;20.84;35.83;98914.97;5052985;28;681;-64
2022/09/18 10:29:35;;;;;;;;;;;;;;;21.39;38.60;98935.66;5052864;28;879;-63
2022/09/18 10:32:03;;;;;;;;;;;;;;;21.62;37.07;98928.22;5053008;28;1039;-62
2022/09/18 10:34:47;;;;;;;;;;;;;;;21.57;37.23;98935.34;5052579;28;915;-63
2022/09/18 10:37:29;;;;;;;;;;;;;;;21.55;39.54;98929.47;5052519;28;856;-63
2022/09/18 10:39:58;;;;;;;;;;;;;;;21.06;37.28;98933.31;5052531;28;781;-66
2022/09/18 10:42:26;;;;;;;;;;;;;;;20.80;38.60;98934.06;5052395;28;887;-64
2022/09/18 10:44:57;;;;;;;;;;;;;;;20.64;38.06;98935.44;5053045;28;776;-64
2022/09/18 10:47:29;;;;;;;;;;;;;;;20.37;37.50;98909.31;5052372;28;871;-65
2022/09/18 10:49:57;;;;;;;;;;;;;;;20.50;38.31;98928.59;5052346;28;931;-63
2022/09/18 10:52:25;;;;;;;;;;;;;;;20.54;37.64;98931.97;5052235;28;870;-64
2022/09/18 10:54:58;;;;;;;;;;;;;;;20.35;38.34;98927.91;5052187;28;812;-64
2022/09/18 10:57:29;;;;;;;;;;;;;;;20.70;36.57;98933.47;5034154;28;1334;-65
2022/09/18 10:59:56;;;;;;;;;;;;;;;21.22;36.08;98932.72;5052153;28;891;-63
2022/09/18 11:02:25;;;;;;;;;;;;;;;21.59;35.92;98932.81;5052723;28;1906;-64
2022/09/18 11:04:53;;;;;;;;;;;;;;;21.86;35.79;98932.72;5052184;28;867;-64
2022/09/18 11:07:22;;;;;;;;;;;;;;;22.16;34.77;98936.75;5052051;28;855;-63
2022/09/18 11:09:50;;;;;;;;;;;;;;;22.32;35.74;98938.13;5052040;28;867;-62
2022/09/18 11:12:18;;;;;;;;;;;;;;;22.69;35.74;98947.75;5051941;28;894;-63
2022/09/18 11:14:48;;;;;;;;;;;;;;;23.11;35.17;98937.63;5051936;28;902;-63
2022/09/18 11:17:22;;;;;;;;;;;;;;;23.23;34.45;98947.63;5051838;28;823;-62
2022/09/18 11:19:50;;;;;;;;;;;;;;;23.38;34.99;98950.22;5051826;28;831;-63
2022/09/18 11:22:31;;;;;;;;;;;;;;;22.75;35.64;98957.00;5051274;28;1952;-63
2022/09/18 11:25:26;;;;;;;;;;;;;;;22.77;35.71;98960.84;5051749;28;855;-64
2022/09/18 11:27:55;;;;;;;;;;;;;;;23.07;34.87;98963.25;5020934;28;1353;-65
2022/09/18 11:30:23;;;;;;;;;;;;;;;22.79;34.75;98958.28;5031444;28;1209;-64
2022/09/18 11:32:54;;;;;;;;;;;;;;;23.23;34.87;98976.59;5051801;28;1408;-63
2022/09/18 11:35:21;;;;;;;;;;;;;;;23.62;34.39;98978.69;5051576;28;869;-64
2022/09/18 11:37:48;;;;;;;;;;;;;;;24.21;34.37;98985.31;5051599;28;847;-64
2022/09/18 11:40:17;;;;;;;;;;;;;;;24.56;33.85;98986.00;5051434;28;1977;-64
2022/09/18 11:42:49;;;;;;;;;;;;;;;24.54;32.56;98980.88;5051623;28;1035;-65
2022/09/18 11:45:27;;;;;;;;;;;;;;;24.15;32.99;98983.78;5051438;28;880;-64
2022/09/18 11:47:59;;;;;;;;;;;;;;;23.33;33.80;98982.00;5051591;28;890;-65
2022/09/18 11:50:29;;;;;;;;;;;;;;;22.74;34.92;98980.78;5051361;28;846;-65
2022/09/18 11:52:59;;;;;;;;;;;;;;;22.88;35.35;98987.50;5033475;28;1196;-65
2022/09/18 11:55:26;;;;;;;;;;;;;;;23.13;33.79;98983.75;5051245;28;847;-64
2022/09/18 11:57:58;;;;;;;;;;;;;;;23.01;33.90;98982.19;5051268;28;812;-64
2022/09/18 12:00:27;;;;;;;;;;;;;;;22.99;34.05;98988.28;5051415;28;1957;-66
2022/09/18 12:02:56;;;;;;;;;;;;;;;22.25;34.12;98992.06;5051482;28;856;-66
2022/09/18 12:05:29;;;;;;;;;;;;;;;21.70;35.41;98987.56;5051686;28;748;-67
2022/09/18 12:07:59;;;;;;;;;;;;;;;21.33;36.20;98991.81;5051247;28;804;-65
2022/09/18 12:10:36;;;;;;;;;;;;;;;21.26;37.55;99005.56;5033253;28;1231;-65
2022/09/18 12:13:14;;;;;;;;;;;;;;;20.96;36.43;99017.75;5051185;28;808;-64
2022/09/18 12:15:44;;;;;;;;;;;;;;;20.75;36.52;98997.34;5051152;28;808;-65
2022/09/18 12:18:20;;;;;;;;;;;;;;;20.47;36.94;99019.41;5051165;28;879;-67
2022/09/18 12:20:49;;;;;;;;;;;;;;;20.54;37.12;99019.00;5033259;28;1955;-64
2022/09/18 12:23:20;;;;;;;;;;;;;;;20.83;37.63;99019.41;5051302;28;814;-64
2022/09/18 12:25:53;;;;;;;;;;;;;;;21.19;37.66;99015.19;5051011;28;824;-64
2022/09/18 12:28:40;;;;;;;;;;;;;;;21.65;36.68;99031.25;5051069;28;824;-65
2022/09/18 12:31:26;;;;;;;;;;;;;;;21.55;36.06;99027.84;5050454;28;1459;-64
2022/09/18 12:33:56;;;;;;;;;;;;;;;21.85;35.62;99021.97;5017586;28;1266;-65
2022/09/18 12:36:37;;;;;;;;;;;;;;;22.45;34.82;99026.97;5015071;28;883;-63
2022/09/18 12:39:14;;;;;;;;;;;;;;;21.98;35.77;99041.25;5015177;28;855;-64
2022/09/18 12:41:57;;;;;;;;;;;;;;;21.36;35.32;99040.69;5015018;28;1910;-65
2022/09/18 12:44:32;;;;;;;;;;;;;;;21.21;35.91;99041.53;5015038;28;812;-65
2022/09/18 12:47:24;;;;;;;;;;;;;;;21.15;35.57;99049.13;5014941;28;899;-65
2022/09/18 12:50:10;;;;;;;;;;;;;;;21.07;36.08;99045.19;5015119;28;872;-63
2022/09/18 12:52:55;;;;;;;;;;;;;;;20.88;36.28;99043.94;5014829;28;907;-64
2022/09/18 12:55:21;;;;;;;;;;;;;;;20.63;36.85;99054.59;5014702;28;879;-64
2022/09/18 12:58:02;;;;;;;;;;;;;;;20.54;37.70;99058.28;5014749;28;831;-64
2022/09/18 13:00:29;;;;;;;;;;;;;;;20.43;37.37;99063.00;5014672;28;1890;-64
2022/09/18 13:03:02;;;;;;;;;;;;;;;20.25;38.13;99061.19;5014647;28;840;-65
2022/09/18 13:05:41;;;;;;;;;;;;;;;20.42;38.40;99059.41;5014969;28;910;-64
2022/09/18 13:08:08;;;;;;;;;;;;;;;20.72;37.68;99065.72;5013254;28;1386;-64
2022/09/18 13:10:38;;;;;;;;;;;;;;;21.53;36.89;99052.09;5014573;28;836;-64
2022/09/18 13:13:11;;;;;;;;;;;;;;;22.35;35.22;99057.41;5014481;28;804;-63
2022/09/18 13:15:40;;;;;;;;;;;;;;;22.07;34.92;99060.75;5014637;28;804;-63
2022/09/18 13:18:07;;;;;;;;;;;;;;;21.87;35.48;99067.25;5014402;28;863;-63
2022/09/18 13:20:39;;;;;;;;;;;;;;;21.99;35.16;99077.31;5014566;28;1890;-63
2022/09/18 13:23:11;;;;;;;;;;;;;;;22.01;35.27;99088.06;5014563;28;816;-65
2022/09/18 13:25:39;;;;;;;;;;;;;;;21.70;36.16;99094.44;5014131;28;840;-63
2022/09/18 13:28:10;;;;;;;;;;;;;;;21.31;36.32;99081.47;5014180;28;891;-63
2022/09/18 13:30:37;;;;;;;;;;;;;;;21.24;38.37;99081.91;5014106;28;1137;-63
2022/09/18 13:33:04;;;;;;;;;;;;;;;21.31;38.82;99087.09;5029547;28;1424;-63
2022/09/18 13:35:33;;;;;;;;;;;;;;;21.28;37.41;99081.72;5053776;28;871;-64
2022/09/18 13:38:12;;;;;;;;;;;;;;;21.17;37.31;99111.22;5053743;28;867;-62
2022/09/18 13:40:44;;;;;;;;;;;;;;;20.89;38.05;99104.47;5053505;28;1981;-64
2022/09/18 13:43:15;;;;;;;;;;;;;;;20.40;37.90;99101.22;5053519;28;891;-62
2022/09/18 13:45:41;;;;;;;;;;;;;;;20.29;40.51;99103.84;5053552;28;882;-63
2022/09/18 13:48:23;;;;;;;;;;;;;;;20.22;40.45;99107.81;5053570;28;820;-64
2022/09/18 13:50:55;;;;;;;;;;;;;;;19.93;39.73;99112.19;5053457;28;816;-64
2022/09/18 13:53:40;;;;;;;;;;;;;;;19.69;39.25;99117.84;5053327;28;789;-63
2022/09/18 13:56:11;;;;;;;;;;;;;;;19.47;39.88;99114.66;5053452;28;848;-65
2022/09/18 13:58:51;;;;;;;;;;;;;;;19.29;40.00;99119.16;5053323;28;902;-64
2022/09/18 14:01:50;;;;;;;;;;;;;;;19.26;40.54;99127.72;5035333;28;1898;-65
2022/09/18 14:04:35;;;;;;;;;;;;;;;19.33;40.59;99128.16;5019680;28;1305;-64